Boone Grove, Indiana
Current Conditions -  °F | °C
As of 4:56 AM on Saturday 25 Oct 2014 (Local Time) from KVPZ Reporting Station
Haze Haze  
Wind Chill: 53°   Ceiling: 3100
Heat Index: 53°   Visibility: 5mi
Dew Point: 51°   Wind: 6mph
Humidity: 93%   Direction: 250°WSW
Pressure: 29.92"   Gusts: NA
Location:  41.35°N, 87.13°W
Report Text: KVPZ 250956Z AUTO 25005KT 5SM BR OVC031 12/11 A2992 RMK AO2 SLP131 T01170106 TSNO
Loading
Personal Weather Stations






























Interactive Weather Map
Tropical Storm Tracking
New forecast layout! Learn more

10-Day Weather Forecast

Advertisements
Track Severe Weather on mobile